Time;durP1;ratioP1;P1;durP2;ratioP2;P2;SDS_P1;SDS_P2;PMS_P1;PMS_P2;Temp;Humidity;BMP_temperature;BMP_pressure;BME280_temperature;BME280_humidity;BME280_pressure;Samples;Min_cycle;Max_cycle;Signal;HPM_P1;HPM_P2
2023/07/30 00:02:05;;;;;;;24.13;6.80;;;17.40;99.90;;;;;;5075310;28;20048;-80
2023/07/30 00:04:30;;;;;;;27.83;7.43;;;17.40;99.90;;;;;;5092403;28;20446;-80
2023/07/30 00:06:56;;;;;;;25.37;7.03;;;17.30;99.90;;;;;;5060020;28;20048;-80
2023/07/30 00:09:22;;;;;;;24.43;7.60;;;17.40;99.90;;;;;;5075639;28;20392;-81
2023/07/30 00:11:48;;;;;;;33.17;7.33;;;17.30;99.90;;;;;;5076149;28;20048;-80
2023/07/30 00:14:13;;;;;;;25.67;6.43;;;17.30;99.90;;;;;;5092984;28;20047;-79
2023/07/30 00:16:47;;;;;;;26.53;7.40;;;17.30;99.90;;;;;;5093285;28;20170;-79
2023/07/30 00:19:18;;;;;;;27.23;7.07;;;17.40;99.90;;;;;;5093017;28;20050;-79
2023/07/30 00:21:46;;;;;;;26.03;7.97;;;17.30;99.90;;;;;;5092362;28;20391;-80
2023/07/30 00:24:14;;;;;;;25.93;6.60;;;17.30;99.90;;;;;;5059281;28;20040;-79
2023/07/30 00:26:40;;;;;;;22.83;6.93;;;17.30;99.90;;;;;;5059148;28;20060;-80
2023/07/30 00:29:05;;;;;;;24.80;7.13;;;17.30;99.90;;;;;;5075771;28;20105;-80
2023/07/30 00:31:31;;;;;;;25.63;7.13;;;17.30;99.90;;;;;;5075447;28;20040;-80
2023/07/30 00:33:57;;;;;;;20.47;7.77;;;17.30;99.90;;;;;;5059367;28;20471;-80
2023/07/30 00:36:22;;;;;;;26.97;6.50;;;17.30;99.90;;;;;;5092336;28;20044;-82
2023/07/30 00:38:48;;;;;;;29.93;7.03;;;17.30;99.90;;;;;;5092358;28;20059;-80
2023/07/30 00:41:14;;;;;;;23.03;6.80;;;17.30;99.90;;;;;;5075937;28;20051;-80
2023/07/30 00:43:39;;;;;;;29.33;7.13;;;17.30;99.90;;;;;;5075374;28;20036;-80
2023/07/30 00:46:05;;;;;;;22.63;6.23;;;17.30;99.90;;;;;;5059023;28;20056;-79
2023/07/30 00:48:31;;;;;;;29.20;6.93;;;17.40;99.90;;;;;;5075247;28;20044;-80
2023/07/30 00:50:58;;;;;;;25.73;6.70;;;17.40;99.90;;;;;;5075626;28;20093;-80
2023/07/30 00:53:26;;;;;;;26.63;7.03;;;17.50;99.90;;;;;;5075430;28;20452;-81
2023/07/30 00:55:51;;;;;;;21.53;7.23;;;17.50;99.90;;;;;;5092658;28;20480;-80
2023/07/30 00:58:20;;;;;;;29.17;6.90;;;17.50;99.90;;;;;;5058767;28;20059;-80
2023/07/30 01:00:46;;;;;;;21.60;6.10;;;17.50;99.90;;;;;;5091592;28;20056;-79
2023/07/30 01:03:12;;;;;;;24.60;5.60;;;17.50;99.90;;;;;;5074812;28;20098;-80
2023/07/30 01:05:38;;;;;;;22.47;6.03;;;17.50;99.90;;;;;;5073978;28;20400;-81
2023/07/30 01:08:10;;;;;;;25.43;6.63;;;17.40;99.90;;;;;;5074576;28;20101;-79
2023/07/30 01:10:39;;;;;;;24.67;5.90;;;17.50;99.90;;;;;;5090982;28;20044;-80
2023/07/30 01:13:08;;;;;;;24.03;6.60;;;17.40;99.90;;;;;;5072576;28;20094;-80
2023/07/30 01:15:37;;;;;;;16.70;5.97;;;17.50;99.90;;;;;;5090972;28;20051;-80
2023/07/30 01:18:03;;;;;;;23.97;6.13;;;17.50;99.90;;;;;;5039075;28;20060;-80
2023/07/30 01:20:35;;;;;;;24.57;6.60;;;17.50;99.90;;;;;;5073206;28;20059;-81
2023/07/30 01:23:04;;;;;;;22.10;6.13;;;17.50;99.90;;;;;;5092590;28;20097;-79
2023/07/30 01:25:45;;;;;;;26.37;6.90;;;17.50;99.90;;;;;;5060239;28;20430;-80
2023/07/30 01:28:16;;;;;;;21.50;6.23;;;17.50;99.90;;;;;;5071619;28;20501;-79
2023/07/30 01:30:46;;;;;;;21.58;6.05;;;17.50;99.90;;;;;;5088611;28;20125;-80
2023/07/30 01:33:26;;;;;;;23.73;6.70;;;17.50;99.90;;;;;;5075088;28;20056;-79
2023/07/30 01:36:03;;;;;;;22.67;7.10;;;17.50;99.90;;;;;;5089462;28;20098;-80
2023/07/30 01:38:43;;;;;;;22.67;6.43;;;17.50;99.90;;;;;;5090596;28;20055;-80
2023/07/30 01:41:11;;;;;;;23.40;7.03;;;17.40;99.90;;;;;;5090260;28;20059;-79
2023/07/30 01:43:38;;;;;;;22.17;6.60;;;17.50;99.90;;;;;;5073251;28;20441;-79
2023/07/30 01:46:06;;;;;;;21.27;7.23;;;17.50;99.90;;;;;;5089460;28;20060;-79
2023/07/30 01:48:32;;;;;;;20.07;7.00;;;17.50;99.90;;;;;;5056694;28;20048;-80
2023/07/30 01:51:05;;;;;;;22.60;6.80;;;17.40;99.90;;;;;;5074983;28;20087;-79
2023/07/30 01:53:40;;;;;;;21.60;7.07;;;17.40;99.90;;;;;;5073156;28;20055;-81
2023/07/30 01:56:06;;;;;;;18.70;7.13;;;17.30;99.90;;;;;;5090163;28;20062;-80
2023/07/30 01:58:42;;;;;;;20.77;6.53;;;17.30;99.90;;;;;;5058497;28;20054;-79
2023/07/30 02:01:10;;;;;;;23.05;7.07;;;17.20;99.90;;;;;;5014834;28;1655747;-79
2023/07/30 02:03:37;;;;;;;24.83;7.37;;;17.20;99.90;;;;;;5074433;28;20063;-80
2023/07/30 02:06:07;;;;;;;23.90;6.33;;;17.20;99.90;;;;;;5091429;28;20071;-79
2023/07/30 02:08:33;;;;;;;17.57;6.83;;;17.20;99.90;;;;;;5040859;28;20059;-80
2023/07/30 02:11:04;;;;;;;20.20;6.67;;;17.10;99.90;;;;;;5092658;28;20056;-79
2023/07/30 02:13:35;;;;;;;24.30;7.57;;;17.00;99.90;;;;;;5045162;28;20121;-80
2023/07/30 02:16:06;;;;;;;21.60;7.53;;;17.00;99.90;;;;;;5091273;28;20132;-79
2023/07/30 02:18:31;;;;;;;18.03;7.17;;;17.00;99.90;;;;;;5058218;28;20134;-80
2023/07/30 02:21:03;;;;;;;20.73;7.37;;;16.90;99.90;;;;;;5075578;28;20131;-80
2023/07/30 02:23:29;;;;;;;20.90;6.53;;;16.90;99.90;;;;;;5057582;28;20470;-80
2023/07/30 02:25:55;;;;;;;16.17;6.53;;;16.90;99.90;;;;;;5093391;28;20052;-80
2023/07/30 02:28:23;;;;;;;23.17;7.20;;;16.80;99.90;;;;;;5096077;28;20048;-79
2023/07/30 02:30:53;;;;;;;17.97;6.73;;;16.80;99.90;;;;;;5078339;28;20044;-81
2023/07/30 02:33:19;;;;;;;22.20;7.63;;;16.70;99.90;;;;;;5094704;28;20549;-80
2023/07/30 02:35:46;;;;;;;18.03;7.40;;;16.70;99.90;;;;;;5044381;28;20040;-81
2023/07/30 02:38:11;;;;;;;15.40;6.50;;;16.70;99.90;;;;;;5061718;28;20044;-80
2023/07/30 02:40:37;;;;;;;18.70;6.23;;;16.70;99.90;;;;;;5061224;28;20442;-81
2023/07/30 02:43:03;;;;;;;19.23;6.93;;;16.60;99.90;;;;;;5078116;28;20055;-80
2023/07/30 02:45:29;;;;;;;20.77;8.03;;;16.50;99.90;;;;;;5077783;28;20127;-80
2023/07/30 02:47:55;;;;;;;18.43;7.57;;;16.50;99.90;;;;;;5094628;28;20055;-80
2023/07/30 02:50:21;;;;;;;23.13;7.23;;;16.50;99.90;;;;;;5077846;28;20433;-80
2023/07/30 02:52:46;;;;;;;23.10;7.27;;;16.50;99.90;;;;;;5094392;28;20040;-80
2023/07/30 02:55:12;;;;;;;22.60;6.93;;;16.50;99.90;;;;;;5077623;28;20043;-80
2023/07/30 02:57:38;;;;;;;23.57;6.87;;;16.40;99.90;;;;;;5044210;28;20052;-80
2023/07/30 03:00:04;;;;;;;22.87;7.53;;;16.40;99.90;;;;;;5060950;28;20185;-80
2023/07/30 03:02:30;;;;;;;17.33;6.67;;;16.50;99.90;;;;;;5060417;28;20146;-79
2023/07/30 03:04:56;;;;;;;19.57;6.90;;;16.40;99.90;;;;;;5060389;28;20131;-81
2023/07/30 03:07:22;;;;;;;20.40;7.50;;;16.50;99.90;;;;;;5060947;28;20048;-80
2023/07/30 03:09:48;;;;;;;22.60;6.97;;;16.50;99.90;;;;;;5094305;28;20046;-81
2023/07/30 03:12:13;;;;;;;21.27;6.83;;;16.40;99.90;;;;;;5094305;28;20135;-80
2023/07/30 03:14:39;;;;;;;22.33;7.03;;;16.50;99.90;;;;;;5094163;28;20133;-80
2023/07/30 03:17:05;;;;;;;19.67;6.57;;;16.50;99.90;;;;;;5060516;28;20511;-80
2023/07/30 03:19:31;;;;;;;21.70;6.03;;;16.50;99.90;;;;;;5060448;28;20047;-80
2023/07/30 03:21:57;;;;;;;19.73;6.37;;;16.50;99.90;;;;;;5060419;28;20083;-80
2023/07/30 03:24:22;;;;;;;21.30;6.87;;;16.50;99.90;;;;;;5093893;28;20086;-80
2023/07/30 03:26:48;;;;;;;18.40;6.93;;;16.50;99.90;;;;;;5060430;28;20052;-80
2023/07/30 03:29:14;;;;;;;22.43;6.63;;;16.50;99.90;;;;;;5077023;28;20039;-80
2023/07/30 03:31:40;;;;;;;19.10;6.20;;;16.60;99.90;;;;;;5077157;28;20130;-80
2023/07/30 03:34:06;;;;;;;22.73;6.10;;;16.50;99.90;;;;;;5093627;28;20135;-80
2023/07/30 03:36:32;;;;;;;20.83;6.73;;;16.50;99.90;;;;;;5092845;28;20488;-80
2023/07/30 03:38:57;;;;;;;23.60;5.90;;;16.50;99.90;;;;;;5076677;28;20040;-80
2023/07/30 03:41:23;;;;;;;17.67;4.90;;;16.50;99.90;;;;;;5093944;28;20044;-79
2023/07/30 03:43:49;;;;;;;25.03;7.13;;;16.50;99.90;;;;;;5093138;28;20472;-80
2023/07/30 03:46:14;;;;;;;22.50;5.73;;;16.50;99.90;;;;;;5093931;28;20051;-79
2023/07/30 03:48:40;;;;;;;23.73;5.77;;;16.50;99.90;;;;;;5043380;28;20468;-79
2023/07/30 03:51:13;;;;;;;22.60;5.77;;;16.50;99.90;;;;;;5093670;28;20044;-79
2023/07/30 03:53:40;;;;;;;20.10;6.50;;;16.50;99.90;;;;;;5076390;28;20036;-80
2023/07/30 03:56:06;;;;;;;25.00;5.40;;;16.50;99.90;;;;;;5071765;28;20255;-79
2023/07/30 03:58:31;;;;;;;21.13;5.80;;;16.50;99.90;;;;;;5055632;28;20605;-80
2023/07/30 04:00:57;;;;;;;16.60;5.10;;;16.60;99.90;;;;;;5022284;28;20057;-81
2023/07/30 04:03:23;;;;;;;20.63;5.37;;;16.60;99.90;;;;;;5038433;28;20056;-80
2023/07/30 04:05:49;;;;;;;19.60;5.40;;;16.60;99.90;;;;;;5070691;28;20084;-82
2023/07/30 04:08:16;;;;;;;20.30;5.17;;;16.60;99.90;;;;;;5021989;28;20048;-80
2023/07/30 04:10:41;;;;;;;16.03;4.73;;;16.60;99.90;;;;;;5038212;28;20048;-80
2023/07/30 04:13:07;;;;;;;15.67;4.20;;;16.60;99.90;;;;;;5021765;28;20968;-80
2023/07/30 04:15:33;;;;;;;15.83;4.00;;;16.70;99.90;;;;;;5088451;28;20060;-79
2023/07/30 04:17:59;;;;;;;18.37;3.70;;;16.70;99.90;;;;;;5054500;28;20417;-80
2023/07/30 04:20:26;;;;;;;17.53;4.47;;;16.70;99.90;;;;;;5054720;28;20146;-80
2023/07/30 04:22:52;;;;;;;16.63;4.50;;;16.70;99.90;;;;;;5037548;28;20056;-80
2023/07/30 04:25:18;;;;;;;17.40;4.30;;;16.70;99.90;;;;;;5037904;28;20519;-79
2023/07/30 04:27:43;;;;;;;16.13;3.50;;;16.80;99.90;;;;;;5083118;28;20568;-80
2023/07/30 04:30:10;;;;;;;17.40;3.70;;;16.80;99.90;;;;;;5075316;28;20536;-80
2023/07/30 04:32:37;;;;;;;16.23;3.43;;;16.80;99.90;;;;;;5059080;28;20093;-79
2023/07/30 04:35:03;;;;;;;11.70;3.30;;;16.90;99.90;;;;;;5090679;28;20101;-79
2023/07/30 04:37:30;;;;;;;13.67;3.77;;;16.90;99.90;;;;;;5042574;28;20048;-79
2023/07/30 04:39:59;;;;;;;15.87;3.90;;;16.90;99.90;;;;;;5092134;28;20136;-79
2023/07/30 04:42:24;;;;;;;12.93;2.93;;;16.90;99.90;;;;;;5092707;28;20079;-80
2023/07/30 04:44:50;;;;;;;12.70;4.03;;;16.90;99.90;;;;;;5058941;28;20094;-80
2023/07/30 04:47:16;;;;;;;12.27;3.07;;;17.00;99.90;;;;;;5092224;28;20047;-80
2023/07/30 04:49:42;;;;;;;11.00;2.90;;;17.00;99.90;;;;;;5092498;28;20044;-80
2023/07/30 04:52:08;;;;;;;14.63;3.30;;;17.00;99.90;;;;;;5092135;28;20051;-80
2023/07/30 04:54:35;;;;;;;13.23;3.53;;;17.00;99.90;;;;;;5075299;28;20056;-81
2023/07/30 04:57:02;;;;;;;10.67;2.70;;;17.00;99.90;;;;;;5093226;28;20434;-81
2023/07/30 04:59:28;;;;;;;11.07;3.10;;;17.00;99.90;;;;;;5059052;28;20059;-80
2023/07/30 05:01:53;;;;;;;9.83;2.67;;;17.10;99.90;;;;;;5091858;28;20056;-81
2023/07/30 05:04:19;;;;;;;11.90;2.63;;;17.10;99.90;;;;;;5042227;28;20044;-80
2023/07/30 05:06:45;;;;;;;12.17;2.63;;;17.20;99.90;;;;;;5075389;28;20445;-81
2023/07/30 05:09:13;;;;;;;10.70;2.63;;;17.20;99.90;;;;;;5091960;28;20044;-80
2023/07/30 05:11:39;;;;;;;11.30;2.50;;;17.30;99.90;;;;;;5075577;28;20083;-80
2023/07/30 05:14:05;;;;;;;13.30;2.70;;;17.30;99.90;;;;;;5091969;28;20475;-81
2023/07/30 05:16:30;;;;;;;11.83;3.80;;;17.30;99.90;;;;;;5042319;28;20387;-80
2023/07/30 05:18:56;;;;;;;9.67;2.70;;;17.30;99.90;;;;;;5091638;28;20083;-81
2023/07/30 05:21:22;;;;;;;10.80;2.77;;;17.40;99.90;;;;;;5075383;28;20052;-80
2023/07/30 05:23:48;;;;;;;12.40;3.27;;;17.40;99.90;;;;;;5075458;28;20444;-80
2023/07/30 05:26:13;;;;;;;11.93;2.67;;;17.40;99.90;;;;;;5075083;28;20048;-80
2023/07/30 05:28:39;;;;;;;12.47;2.90;;;17.40;99.90;;;;;;5091945;28;20040;-81
2023/07/30 05:31:05;;;;;;;10.73;2.73;;;17.40;99.90;;;;;;5058419;28;20044;-81
2023/07/30 05:33:30;;;;;;;11.10;2.67;;;17.40;99.90;;;;;;5041905;28;20055;-82
2023/07/30 05:35:56;;;;;;;12.23;2.50;;;17.50;99.90;;;;;;5074991;28;20052;-81
2023/07/30 05:38:22;;;;;;;9.97;2.83;;;17.50;99.90;;;;;;5058290;28;20051;-81
2023/07/30 05:40:48;;;;;;;10.37;2.40;;;17.50;99.90;;;;;;5074862;28;20046;-80
2023/07/30 05:43:14;;;;;;;9.43;2.20;;;17.60;99.90;;;;;;5058161;28;20087;-81
2023/07/30 05:45:39;;;;;;;10.30;2.47;;;17.60;99.90;;;;;;5091588;28;20567;-80
2023/07/30 05:48:05;;;;;;;14.00;3.00;;;17.60;99.90;;;;;;5091014;28;20071;-79
2023/07/30 05:50:31;;;;;;;9.03;2.27;;;17.60;99.90;;;;;;5058458;28;20044;-81
2023/07/30 05:52:56;;;;;;;11.70;2.43;;;17.70;99.90;;;;;;5091847;28;20075;-80
2023/07/30 05:55:22;;;;;;;10.97;2.87;;;17.70;99.90;;;;;;5057937;28;20369;-80
2023/07/30 05:57:48;;;;;;;11.47;2.80;;;17.70;99.90;;;;;;5074679;28;20048;-81
2023/07/30 06:00:14;;;;;;;12.37;2.97;;;17.70;99.90;;;;;;5076392;28;20052;-81
2023/07/30 06:02:40;;;;;;;11.87;2.80;;;17.70;99.90;;;;;;5078561;28;20108;-79
2023/07/30 06:05:06;;;;;;;10.43;2.53;;;17.70;99.90;;;;;;5096257;28;20444;-81
2023/07/30 06:07:32;;;;;;;11.73;3.10;;;17.80;99.90;;;;;;5078528;28;20542;-79
2023/07/30 06:09:57;;;;;;;12.17;3.10;;;17.70;99.90;;;;;;5095626;28;20139;-80
2023/07/30 06:12:23;;;;;;;13.60;2.93;;;17.80;99.90;;;;;;5061611;28;20044;-80
2023/07/30 06:14:49;;;;;;;12.13;3.13;;;17.80;99.90;;;;;;5078504;28;20047;-79
2023/07/30 06:17:14;;;;;;;10.67;2.33;;;17.90;99.90;;;;;;5061532;28;20048;-79
2023/07/30 06:19:43;;;;;;;12.77;2.80;;;18.00;99.90;;;;;;5078191;28;20407;-80
2023/07/30 06:22:09;;;;;;;8.57;2.50;;;18.10;99.90;;;;;;5077983;28;20143;-80
2023/07/30 06:24:34;;;;;;;11.70;3.43;;;18.20;99.90;;;;;;5078224;28;20466;-80
2023/07/30 06:27:00;;;;;;;11.57;2.53;;;18.30;99.90;;;;;;5061709;28;20090;-80
2023/07/30 06:29:26;;;;;;;11.17;2.57;;;18.30;99.90;;;;;;5077905;28;20052;-79
2023/07/30 06:31:52;;;;;;;10.60;2.83;;;18.40;99.90;;;;;;5095065;28;20040;-79
2023/07/30 06:34:17;;;;;;;11.67;3.50;;;18.50;99.90;;;;;;5060946;28;20399;-78
2023/07/30 06:36:43;;;;;;;10.60;3.10;;;18.50;99.90;;;;;;5094956;28;20143;-80
2023/07/30 06:39:09;;;;;;;10.60;2.60;;;18.80;99.90;;;;;;5078000;28;20062;-81
2023/07/30 06:41:34;;;;;;;9.33;3.20;;;19.50;99.90;;;;;;5078071;28;20075;-80
2023/07/30 06:44:00;;;;;;;9.37;3.03;;;20.20;99.90;;;;;;5060986;28;20039;-80
2023/07/30 06:46:26;;;;;;;12.40;2.70;;;20.40;99.90;;;;;;5094258;28;20108;-79
2023/07/30 06:48:51;;;;;;;11.73;2.87;;;20.70;99.90;;;;;;5061271;28;20048;-80
2023/07/30 06:51:20;;;;;;;10.53;2.87;;;21.30;99.90;;;;;;5077581;28;20438;-81
2023/07/30 06:53:45;;;;;;;10.20;3.20;;;22.00;99.90;;;;;;5077774;28;20083;-80
2023/07/30 06:56:12;;;;;;;8.43;3.00;;;22.80;99.90;;;;;;5093984;28;20472;-80
2023/07/30 06:58:46;;;;;;;11.70;2.90;;;23.90;99.90;;;;;;5078025;28;20055;-77
2023/07/30 07:01:42;;;;;;;9.37;2.43;;;24.60;99.90;;;;;;5095117;28;20063;-79
2023/07/30 07:04:24;;;;;;;8.70;2.37;;;25.40;99.90;;;;;;5094138;28;20079;-80
2023/07/30 07:07:20;;;;;;;8.50;2.27;;;26.50;99.90;;;;;;5093667;28;20114;-80
2023/07/30 07:09:50;;;;;;;10.43;3.17;;;26.70;97.60;;;;;;5092543;28;20139;-80
2023/07/30 07:12:17;;;;;;;8.70;3.00;;;26.20;92.70;;;;;;5093811;28;20052;-82
2023/07/30 07:14:43;;;;;;;11.23;2.83;;;25.50;94.60;;;;;;5095170;28;20388;-82
2023/07/30 07:17:08;;;;;;;11.03;2.70;;;24.90;94.70;;;;;;5095314;28;20484;-79
2023/07/30 07:19:36;;;;;;;9.97;2.60;;;24.70;94.20;;;;;;5095513;28;20064;-81
2023/07/30 07:22:04;;;;;;;12.97;2.67;;;24.60;93.00;;;;;;5095753;28;20048;-81
2023/07/30 07:24:30;;;;;;;10.63;2.67;;;24.10;92.50;;;;;;5063002;28;20044;-82
2023/07/30 07:26:57;;;;;;;8.60;2.30;;;23.60;93.20;;;;;;5078411;28;20504;-83
2023/07/30 07:29:22;;;;;;;10.83;3.00;;;23.00;96.90;;;;;;5095850;28;20537;-80
2023/07/30 07:31:48;;;;;;;11.63;2.47;;;22.50;97.40;;;;;;5094151;28;20044;-80
2023/07/30 07:34:14;;;;;;;13.53;3.13;;;22.00;99.10;;;;;;5077058;28;20056;-81
2023/07/30 07:36:39;;;;;;;11.63;2.77;;;21.60;99.90;;;;;;5077020;28;20048;-80
2023/07/30 07:39:06;;;;;;;11.03;2.53;;;21.30;99.90;;;;;;5093649;28;20083;-80
2023/07/30 07:41:32;;;;;;;10.87;2.30;;;21.10;99.90;;;;;;5093761;28;20400;-80
2023/07/30 07:43:57;;;;;;;9.20;2.47;;;20.80;99.90;;;;;;5094752;28;20036;-79
2023/07/30 07:46:24;;;;;;;10.97;3.03;;;20.60;99.90;;;;;;5093306;28;20369;-80
2023/07/30 07:48:50;;;;;;;10.47;2.60;;;20.40;99.90;;;;;;5094585;28;20051;-81
2023/07/30 07:51:15;;;;;;;14.07;3.17;;;20.30;99.90;;;;;;5093331;28;20484;-82
2023/07/30 07:53:41;;;;;;;10.73;3.03;;;20.20;99.90;;;;;;5093490;28;20127;-78
2023/07/30 07:56:07;;;;;;;10.67;2.40;;;20.10;99.90;;;;;;5093461;28;20048;-78
2023/07/30 07:58:33;;;;;;;12.97;3.60;;;20.00;99.90;;;;;;5076271;28;20052;-80
2023/07/30 08:00:59;;;;;;;13.50;2.90;;;19.90;99.90;;;;;;5093146;28;20476;-80
2023/07/30 08:03:28;;;;;;;10.93;2.27;;;20.00;99.90;;;;;;5092699;28;20145;-81
2023/07/30 08:05:54;;;;;;;11.70;2.50;;;20.70;99.90;;;;;;5076595;28;20051;-81
2023/07/30 08:08:19;;;;;;;11.30;2.87;;;21.20;99.90;;;;;;5093926;28;20044;-80
2023/07/30 08:10:47;;;;;;;9.57;2.10;;;21.40;99.90;;;;;;5043102;28;20256;-82
2023/07/30 08:13:14;;;;;;;12.40;2.77;;;21.30;99.90;;;;;;5076295;28;20055;-81
2023/07/30 08:15:39;;;;;;;12.07;2.57;;;21.20;99.90;;;;;;5075724;28;20048;-82
2023/07/30 08:18:05;;;;;;;10.83;2.80;;;21.10;99.90;;;;;;5059422;28;20047;-80
2023/07/30 08:20:31;;;;;;;13.07;3.33;;;21.20;99.90;;;;;;5059262;28;20138;-81
2023/07/30 08:22:57;;;;;;;13.27;2.63;;;21.40;99.90;;;;;;5092483;28;20051;-82
2023/07/30 08:25:22;;;;;;;13.07;3.10;;;21.60;99.90;;;;;;5092554;28;20449;-80
2023/07/30 08:27:48;;;;;;;11.60;2.77;;;21.60;99.90;;;;;;5094497;28;20479;-83
2023/07/30 08:30:14;;;;;;;11.20;2.57;;;21.60;99.90;;;;;;5093716;28;20052;-83
2023/07/30 08:32:41;;;;;;;10.77;2.97;;;21.40;99.90;;;;;;5092563;28;20901;-87
2023/07/30 08:35:07;;;;;;;12.40;3.20;;;21.20;99.90;;;;;;5093842;28;20044;-83
2023/07/30 08:37:33;;;;;;;15.53;2.90;;;21.10;99.90;;;;;;5092480;28;20048;-82
2023/07/30 08:39:59;;;;;;;9.67;3.13;;;20.90;99.90;;;;;;5093553;28;20046;-80
2023/07/30 08:42:24;;;;;;;11.13;2.67;;;20.80;99.90;;;;;;5091811;28;20105;-83
2023/07/30 08:44:50;;;;;;;10.17;2.43;;;20.70;99.90;;;;;;5072445;28;20047;-83
2023/07/30 08:47:16;;;;;;;13.07;2.80;;;20.60;99.90;;;;;;5092289;28;20052;-80
2023/07/30 08:49:42;;;;;;;8.07;2.40;;;20.50;99.90;;;;;;5093158;28;20075;-82
2023/07/30 08:52:11;;;;;;;7.60;2.20;;;20.30;99.90;;;;;;5075797;28;20545;-80
2023/07/30 08:54:38;;;;;;;7.60;2.10;;;20.00;99.90;;;;;;5092024;28;20079;-80
2023/07/30 08:57:05;;;;;;;10.50;2.60;;;19.90;99.90;;;;;;5093535;28;20056;-80
2023/07/30 08:59:49;;;;;;;7.73;2.10;;;19.80;99.90;;;;;;5093244;28;20092;-81
2023/07/30 09:02:39;;;;;;;7.50;1.93;;;19.90;99.90;;;;;;5092150;28;20060;-81
2023/07/30 09:05:05;;;;;;;9.47;2.43;;;19.70;99.90;;;;;;5092853;28;20480;-81
2023/07/30 09:07:31;;;;;;;9.10;2.10;;;19.70;99.90;;;;;;5093130;28;20048;-80
2023/07/30 09:09:57;;;;;;;8.17;2.20;;;19.60;99.90;;;;;;5093269;28;20396;-72
2023/07/30 09:12:32;;;;;;;8.13;2.37;;;19.60;99.90;;;;;;5091859;28;20048;-72
2023/07/30 09:14:58;;;;;;;5.85;1.90;;;19.50;99.90;;;;;;5092185;28;20104;-74
2023/07/30 09:17:25;;;;;;;8.60;2.57;;;19.40;99.90;;;;;;5075192;28;20127;-75
2023/07/30 09:19:52;;;;;;;7.00;2.00;;;19.40;99.90;;;;;;5092780;28;20557;-73
2023/07/30 09:22:25;;;;;;;6.67;2.10;;;19.40;99.90;;;;;;5092304;28;20052;-74
2023/07/30 09:24:51;;;;;;;6.10;1.90;;;19.50;99.90;;;;;;5093087;28;20484;-73
2023/07/30 09:27:22;;;;;;;8.27;1.83;;;19.50;99.90;;;;;;5093052;28;20051;-71
2023/07/30 09:29:56;;;;;;;8.57;2.30;;;19.60;99.90;;;;;;5092817;28;20062;-73
2023/07/30 09:32:33;;;;;;;8.07;2.10;;;19.70;99.90;;;;;;5092995;28;20040;-73
2023/07/30 09:35:09;;;;;;;8.57;2.00;;;19.80;99.90;;;;;;5076512;28;20044;-73
2023/07/30 09:37:40;;;;;;;9.40;2.70;;;19.90;99.90;;;;;;5095610;28;20044;-73
2023/07/30 09:40:12;;;;;;;9.10;2.10;;;20.00;99.90;;;;;;5095991;28;20048;-71
2023/07/30 09:42:39;;;;;;;10.07;3.07;;;20.20;99.90;;;;;;5096752;28;20472;-72
2023/07/30 09:45:09;;;;;;;7.40;2.27;;;20.40;99.90;;;;;;5078513;28;20135;-71
2023/07/30 09:47:37;;;;;;;9.23;2.43;;;20.50;99.90;;;;;;5096564;28;20040;-76
2023/07/30 09:50:03;;;;;;;11.70;1.80;;;20.60;99.90;;;;;;5097029;28;20043;-72
2023/07/30 09:52:30;;;;;;;8.87;2.07;;;20.80;99.90;;;;;;5096762;28;20051;-72
2023/07/30 09:54:58;;;;;;;7.97;2.30;;;20.80;99.90;;;;;;5095520;28;20047;-76
2023/07/30 09:57:24;;;;;;;9.17;2.50;;;20.80;99.90;;;;;;5095399;28;20492;-75
2023/07/30 09:59:50;;;;;;;12.43;3.17;;;20.80;99.90;;;;;;5096459;28;20052;-78
2023/07/30 10:02:16;;;;;;;13.17;2.70;;;20.80;99.90;;;;;;5096562;28;20194;-78
2023/07/30 10:04:48;;;;;;;11.60;2.37;;;20.60;99.90;;;;;;5095142;28;20480;-76
2023/07/30 10:07:21;;;;;;;7.90;2.30;;;20.40;99.90;;;;;;5095388;28;20134;-78
2023/07/30 10:09:50;;;;;;;12.13;2.83;;;20.20;99.90;;;;;;5095054;28;20052;-81
2023/07/30 10:12:19;;;;;;;10.17;2.50;;;20.20;99.90;;;;;;5078293;28;20056;-75
2023/07/30 10:14:45;;;;;;;14.47;2.80;;;20.20;99.90;;;;;;5095010;28;20044;-76
2023/07/30 10:17:23;;;;;;;11.40;2.53;;;20.40;99.90;;;;;;5096368;28;20131;-71
2023/07/30 10:19:50;;;;;;;9.23;2.67;;;20.50;99.90;;;;;;5094490;28;20207;-71
2023/07/30 10:22:20;;;;;;;10.80;2.20;;;20.60;99.90;;;;;;5096275;28;20062;-74
2023/07/30 10:25:07;;;;;;;11.27;2.90;;;20.60;99.90;;;;;;5078008;28;20082;-79
2023/07/30 10:27:43;;;;;;;12.53;2.40;;;20.60;99.90;;;;;;5095128;28;20048;-76
2023/07/30 10:30:19;;;;;;;9.03;2.83;;;20.50;99.90;;;;;;5095242;28;20554;-80
2023/07/30 10:33:00;;;;;;;7.63;2.40;;;20.60;99.90;;;;;;5078236;28;20040;-82
2023/07/30 10:35:46;;;;;;;8.13;2.40;;;20.70;99.90;;;;;;5078412;28;20047;-78
2023/07/30 10:38:20;;;;;;;9.47;2.13;;;20.80;99.90;;;;;;5095485;28;20071;-81
2023/07/30 10:41:06;;;;;;;9.10;2.13;;;20.80;99.90;;;;;;5095010;28;20079;-80
2023/07/30 10:43:35;;;;;;;11.30;2.43;;;20.80;99.90;;;;;;5096100;28;20047;-80
2023/07/30 10:46:01;;;;;;;11.17;2.70;;;20.80;99.90;;;;;;5093727;28;20036;-81
2023/07/30 10:48:38;;;;;;;9.97;3.03;;;20.70;99.90;;;;;;5095737;28;20093;-79
2023/07/30 10:51:06;;;;;;;9.77;2.87;;;20.80;99.90;;;;;;5095322;28;20451;-76
2023/07/30 10:53:32;;;;;;;9.27;2.80;;;20.80;99.90;;;;;;5095657;28;20044;-75
2023/07/30 10:56:01;;;;;;;11.27;2.47;;;20.90;99.90;;;;;;5094343;28;20088;-76
2023/07/30 10:58:28;;;;;;;10.23;2.33;;;21.00;99.90;;;;;;5077704;28;20101;-77
2023/07/30 11:00:54;;;;;;;10.40;3.20;;;21.00;99.90;;;;;;5077364;28;20047;-78
2023/07/30 11:03:20;;;;;;;7.63;2.50;;;20.90;99.90;;;;;;5095537;28;20095;-79
2023/07/30 11:05:47;;;;;;;9.53;2.50;;;20.90;99.90;;;;;;5076027;28;20087;-76
2023/07/30 11:08:14;;;;;;;9.27;2.40;;;20.80;99.90;;;;;;5094340;28;20059;-77
2023/07/30 11:10:49;;;;;;;7.27;2.10;;;20.80;99.90;;;;;;5093419;28;20131;-77
2023/07/30 11:13:15;;;;;;;11.53;2.70;;;20.70;99.90;;;;;;5077721;28;20048;-81
2023/07/30 11:15:44;;;;;;;10.80;2.63;;;20.70;99.90;;;;;;5060408;28;20099;-77
2023/07/30 11:18:12;;;;;;;15.63;2.97;;;20.60;99.90;;;;;;5094250;28;20093;-75
2023/07/30 11:20:37;;;;;;;13.27;2.97;;;20.70;99.90;;;;;;5095177;28;20052;-76
2023/07/30 11:23:23;;;;;;;7.53;2.43;;;20.80;99.90;;;;;;5094805;28;20105;-76
2023/07/30 11:25:50;;;;;;;9.87;2.50;;;20.90;99.90;;;;;;5093496;28;20044;-77
2023/07/30 11:28:30;;;;;;;10.30;2.17;;;21.00;99.90;;;;;;5094012;28;20052;-77
2023/07/30 11:31:00;;;;;;;7.10;1.97;;;21.00;99.90;;;;;;5094660;28;20052;-76
2023/07/30 11:33:27;;;;;;;11.43;2.60;;;21.10;99.90;;;;;;5093793;28;20055;-76
2023/07/30 11:35:54;;;;;;;13.63;2.80;;;21.00;99.90;;;;;;5093676;28;20104;-79
2023/07/30 11:38:19;;;;;;;8.47;2.43;;;20.90;99.90;;;;;;5076940;28;20047;-78
2023/07/30 11:40:47;;;;;;;14.30;3.27;;;20.50;99.90;;;;;;5094415;28;20066;-75
2023/07/30 11:43:15;;;;;;;10.30;2.20;;;20.20;99.90;;;;;;5094720;28;20040;-73
2023/07/30 11:45:41;;;;;;;8.80;2.37;;;19.80;99.90;;;;;;5076503;28;20043;-73
2023/07/30 11:48:09;;;;;;;12.93;2.80;;;19.50;99.90;;;;;;5094370;28;20051;-73
2023/07/30 11:50:49;;;;;;;10.57;2.47;;;19.30;99.90;;;;;;5093268;28;20056;-74
2023/07/30 11:53:15;;;;;;;9.97;2.73;;;19.10;99.90;;;;;;5094484;28;20077;-75
2023/07/30 11:55:42;;;;;;;11.00;2.43;;;19.00;99.90;;;;;;5093323;28;20396;-78
2023/07/30 11:58:10;;;;;;;12.60;3.10;;;19.00;99.90;;;;;;5093365;28;20048;-76
2023/07/30 12:00:40;;;;;;;12.63;3.47;;;19.10;99.90;;;;;;5094389;28;20075;-76
2023/07/30 12:03:09;;;;;;;13.27;3.17;;;19.10;99.90;;;;;;5092569;28;20048;-74
2023/07/30 12:05:37;;;;;;;10.00;2.80;;;19.20;99.90;;;;;;5092500;28;20063;-74
2023/07/30 12:08:07;;;;;;;11.43;2.90;;;19.20;99.90;;;;;;5092947;28;20434;-76
2023/07/30 12:11:02;;;;;;;8.93;2.57;;;19.20;99.90;;;;;;5093104;28;20055;-81
2023/07/30 12:13:28;;;;;;;16.10;3.97;;;19.30;99.90;;;;;;5080224;28;20060;-75
2023/07/30 12:15:55;;;;;;;9.50;2.47;;;19.40;99.90;;;;;;5075680;28;20058;-72
2023/07/30 12:18:23;;;;;;;14.03;3.03;;;19.40;99.90;;;;;;5093988;28;20083;-73
2023/07/30 12:20:50;;;;;;;8.00;2.20;;;19.50;99.90;;;;;;5093956;28;20051;-76
2023/07/30 12:23:17;;;;;;;8.33;1.97;;;19.60;99.90;;;;;;5093280;28;20127;-70
2023/07/30 12:25:43;;;;;;;8.30;2.67;;;19.60;99.90;;;;;;5075793;28;20048;-70
2023/07/30 12:28:08;;;;;;;10.23;2.73;;;19.60;99.90;;;;;;5092533;28;20545;-71
2023/07/30 12:30:36;;;;;;;11.60;2.93;;;19.60;99.90;;;;;;5092467;28;20047;-70
2023/07/30 12:33:03;;;;;;;7.23;1.87;;;19.50;99.90;;;;;;5092269;28;20071;-73
2023/07/30 12:35:29;;;;;;;10.97;2.47;;;19.60;99.90;;;;;;5092707;28;20059;-75
2023/07/30 12:37:55;;;;;;;8.43;2.27;;;19.70;99.90;;;;;;5093828;28;20083;-76
2023/07/30 12:40:21;;;;;;;12.43;2.53;;;19.80;99.90;;;;;;5093607;28;20040;-74
2023/07/30 12:42:46;;;;;;;6.90;1.97;;;19.80;99.90;;;;;;5091154;28;20102;-75